sensor_id;sensor_type;location;lat;lon;timestamp;pressure;altitude;pressure_sealevel;temperature;humidity
41686;BME280;27370;42.764;23.432;2023-02-01T00:00:00;95664.63;;;-0.96;100.00
41686;BME280;27370;42.764;23.432;2023-02-01T00:02:26;95654.53;;;-1.15;100.00
41686;BME280;27370;42.764;23.432;2023-02-01T00:04:51;95660.88;;;-1.07;100.00
41686;BME280;27370;42.764;23.432;2023-02-01T00:07:17;95666.97;;;-0.95;100.00
41686;BME280;27370;42.764;23.432;2023-02-01T00:09:42;95663.19;;;-1.06;100.00
41686;BME280;27370;42.764;23.432;2023-02-01T00:12:08;95661.59;;;-1.19;100.00
41686;BME280;27370;42.764;23.432;2023-02-01T00:14:33;95665.16;;;-1.15;100.00
41686;BME280;27370;42.764;23.432;2023-02-01T00:17:06;95667.47;;;-1.13;100.00
41686;BME280;27370;42.764;23.432;2023-02-01T00:19:33;95650.00;;;-1.14;100.00
41686;BME280;27370;42.764;23.432;2023-02-01T00:21:58;95669.63;;;-1.07;100.00
41686;BME280;27370;42.764;23.432;2023-02-01T00:24:24;95661.41;;;-1.14;100.00
41686;BME280;27370;42.764;23.432;2023-02-01T00:26:49;95664.53;;;-1.12;100.00
41686;BME280;27370;42.764;23.432;2023-02-01T00:29:18;95657.09;;;-0.94;100.00
41686;BME280;27370;42.764;23.432;2023-02-01T00:31:45;95652.56;;;-1.06;100.00
41686;BME280;27370;42.764;23.432;2023-02-01T00:34:12;95662.97;;;-1.01;100.00
41686;BME280;27370;42.764;23.432;2023-02-01T00:36:39;95653.44;;;-1.02;100.00
41686;BME280;27370;42.764;23.432;2023-02-01T00:39:05;95652.13;;;-1.08;100.00
41686;BME280;27370;42.764;23.432;2023-02-01T00:41:31;95641.81;;;-0.97;100.00
41686;BME280;27370;42.764;23.432;2023-02-01T00:43:56;95628.22;;;-1.08;100.00
41686;BME280;27370;42.764;23.432;2023-02-01T00:46:22;95640.59;;;-1.12;100.00
41686;BME280;27370;42.764;23.432;2023-02-01T00:48:48;95652.63;;;-1.27;100.00
41686;BME280;27370;42.764;23.432;2023-02-01T00:51:17;95646.50;;;-1.39;100.00
41686;BME280;27370;42.764;23.432;2023-02-01T00:53:43;95647.59;;;-1.52;100.00
41686;BME280;27370;42.764;23.432;2023-02-01T00:56:09;95628.34;;;-1.49;100.00
41686;BME280;27370;42.764;23.432;2023-02-01T00:58:35;95643.28;;;-1.45;100.00
41686;BME280;27370;42.764;23.432;2023-02-01T01:01:20;95637.75;;;-1.52;100.00
41686;BME280;27370;42.764;23.432;2023-02-01T01:03:51;95631.50;;;-1.68;100.00
41686;BME280;27370;42.764;23.432;2023-02-01T01:06:20;95642.72;;;-1.50;100.00
41686;BME280;27370;42.764;23.432;2023-02-01T01:08:46;95640.63;;;-1.45;100.00
41686;BME280;27370;42.764;23.432;2023-02-01T01:11:17;95645.84;;;-1.48;100.00
41686;BME280;27370;42.764;23.432;2023-02-01T01:13:47;95627.25;;;-1.36;100.00
41686;BME280;27370;42.764;23.432;2023-02-01T01:16:13;95637.38;;;-1.30;100.00
41686;BME280;27370;42.764;23.432;2023-02-01T01:18:39;95627.63;;;-1.26;100.00
41686;BME280;27370;42.764;23.432;2023-02-01T01:21:06;95633.16;;;-1.18;100.00
41686;BME280;27370;42.764;23.432;2023-02-01T01:23:32;95629.00;;;-1.07;100.00
41686;BME280;27370;42.764;23.432;2023-02-01T01:25:58;95627.31;;;-1.12;100.00
41686;BME280;27370;42.764;23.432;2023-02-01T01:28:23;95629.09;;;-1.04;100.00
41686;BME280;27370;42.764;23.432;2023-02-01T01:30:49;95634.19;;;-0.99;100.00
41686;BME280;27370;42.764;23.432;2023-02-01T01:33:15;95615.78;;;-1.16;100.00
41686;BME280;27370;42.764;23.432;2023-02-01T01:35:41;95636.72;;;-1.02;100.00
41686;BME280;27370;42.764;23.432;2023-02-01T01:38:09;95629.50;;;-1.14;100.00
41686;BME280;27370;42.764;23.432;2023-02-01T01:40:35;95641.38;;;-1.11;100.00
41686;BME280;27370;42.764;23.432;2023-02-01T01:43:01;95650.00;;;-1.14;100.00
41686;BME280;27370;42.764;23.432;2023-02-01T01:45:29;95638.81;;;-1.20;100.00
41686;BME280;27370;42.764;23.432;2023-02-01T01:47:58;95644.56;;;-1.18;100.00
41686;BME280;27370;42.764;23.432;2023-02-01T01:50:36;95648.00;;;-1.30;100.00
41686;BME280;27370;42.764;23.432;2023-02-01T01:53:05;95647.94;;;-1.42;100.00
41686;BME280;27370;42.764;23.432;2023-02-01T01:55:34;95642.75;;;-1.38;100.00
41686;BME280;27370;42.764;23.432;2023-02-01T01:58:06;95648.72;;;-1.41;100.00
41686;BME280;27370;42.764;23.432;2023-02-01T02:00:33;95651.59;;;-1.46;100.00
41686;BME280;27370;42.764;23.432;2023-02-01T02:03:03;95630.88;;;-1.53;100.00
41686;BME280;27370;42.764;23.432;2023-02-01T02:05:32;95639.09;;;-1.46;100.00
41686;BME280;27370;42.764;23.432;2023-02-01T02:07:59;95632.00;;;-1.54;100.00
41686;BME280;27370;42.764;23.432;2023-02-01T02:10:27;95647.91;;;-1.54;100.00
41686;BME280;27370;42.764;23.432;2023-02-01T02:13:14;95639.06;;;-1.58;100.00
41686;BME280;27370;42.764;23.432;2023-02-01T02:15:52;95635.16;;;-1.61;100.00
41686;BME280;27370;42.764;23.432;2023-02-01T02:18:33;95633.47;;;-1.77;100.00
41686;BME280;27370;42.764;23.432;2023-02-01T02:27:03;95623.66;;;-1.65;100.00
41686;BME280;27370;42.764;23.432;2023-02-01T02:35:26;95650.50;;;-1.99;100.00
41686;BME280;27370;42.764;23.432;2023-02-01T02:38:33;95649.28;;;-2.02;100.00
41686;BME280;27370;42.764;23.432;2023-02-01T02:47:20;95632.94;;;-1.92;100.00
41686;BME280;27370;42.764;23.432;2023-02-01T02:50:08;95632.88;;;-1.83;100.00
41686;BME280;27370;42.764;23.432;2023-02-01T02:53:00;95649.50;;;-1.74;100.00
41686;BME280;27370;42.764;23.432;2023-02-01T02:55:46;95635.47;;;-1.74;100.00
41686;BME280;27370;42.764;23.432;2023-02-01T02:58:13;95646.75;;;-1.65;100.00
41686;BME280;27370;42.764;23.432;2023-02-01T03:00:59;95636.69;;;-1.72;100.00
41686;BME280;27370;42.764;23.432;2023-02-01T03:03:45;95657.81;;;-1.63;100.00
41686;BME280;27370;42.764;23.432;2023-02-01T03:06:35;95655.78;;;-1.58;100.00
41686;BME280;27370;42.764;23.432;2023-02-01T03:09:06;95650.47;;;-1.58;100.00
41686;BME280;27370;42.764;23.432;2023-02-01T03:11:35;95649.91;;;-1.51;100.00
41686;BME280;27370;42.764;23.432;2023-02-01T03:14:21;95659.66;;;-1.43;100.00
41686;BME280;27370;42.764;23.432;2023-02-01T03:16:51;95656.03;;;-1.38;100.00
41686;BME280;27370;42.764;23.432;2023-02-01T03:19:35;95662.16;;;-1.26;100.00
41686;BME280;27370;42.764;23.432;2023-02-01T03:22:07;95684.53;;;-1.14;100.00
41686;BME280;27370;42.764;23.432;2023-02-01T03:24:44;95676.38;;;-1.09;100.00
41686;BME280;27370;42.764;23.432;2023-02-01T03:27:17;95679.59;;;-1.04;100.00
41686;BME280;27370;42.764;23.432;2023-02-01T03:29:53;95684.75;;;-1.19;100.00
41686;BME280;27370;42.764;23.432;2023-02-01T03:32:20;95680.53;;;-1.20;100.00
41686;BME280;27370;42.764;23.432;2023-02-01T03:34:47;95687.41;;;-1.19;100.00
41686;BME280;27370;42.764;23.432;2023-02-01T03:37:17;95682.84;;;-1.31;100.00
41686;BME280;27370;42.764;23.432;2023-02-01T03:40:07;95690.28;;;-1.25;100.00
41686;BME280;27370;42.764;23.432;2023-02-01T03:42:40;95690.06;;;-1.19;100.00
41686;BME280;27370;42.764;23.432;2023-02-01T03:45:13;95682.53;;;-1.17;100.00
41686;BME280;27370;42.764;23.432;2023-02-01T03:47:43;95675.66;;;-1.18;100.00
41686;BME280;27370;42.764;23.432;2023-02-01T03:50:17;95680.34;;;-1.03;100.00
41686;BME280;27370;42.764;23.432;2023-02-01T03:52:48;95667.06;;;-1.03;100.00
41686;BME280;27370;42.764;23.432;2023-02-01T03:55:20;95664.53;;;-1.12;100.00
41686;BME280;27370;42.764;23.432;2023-02-01T03:58:18;95675.00;;;-1.15;100.00
41686;BME280;27370;42.764;23.432;2023-02-01T04:00:50;95674.38;;;-1.12;100.00
41686;BME280;27370;42.764;23.432;2023-02-01T04:03:16;95676.00;;;-1.20;100.00
41686;BME280;27370;42.764;23.432;2023-02-01T04:05:42;95672.56;;;-1.20;100.00
41686;BME280;27370;42.764;23.432;2023-02-01T04:08:09;95679.09;;;-1.18;100.00
41686;BME280;27370;42.764;23.432;2023-02-01T04:10:34;95676.34;;;-1.21;100.00
41686;BME280;27370;42.764;23.432;2023-02-01T04:12:59;95676.88;;;-1.16;100.00
41686;BME280;27370;42.764;23.432;2023-02-01T04:15:25;95683.97;;;-1.20;100.00
41686;BME280;27370;42.764;23.432;2023-02-01T04:17:51;95682.66;;;-1.14;100.00
41686;BME280;27370;42.764;23.432;2023-02-01T04:20:16;95684.34;;;-1.09;100.00
41686;BME280;27370;42.764;23.432;2023-02-01T04:22:43;95690.44;;;-1.09;100.00
41686;BME280;27370;42.764;23.432;2023-02-01T04:25:09;95685.34;;;-1.02;100.00
41686;BME280;27370;42.764;23.432;2023-02-01T04:27:35;95692.44;;;-0.94;100.00
41686;BME280;27370;42.764;23.432;2023-02-01T04:30:01;95685.78;;;-1.00;100.00
41686;BME280;27370;42.764;23.432;2023-02-01T04:32:27;95685.56;;;-0.95;100.00
41686;BME280;27370;42.764;23.432;2023-02-01T04:34:52;95679.25;;;-1.02;100.00
41686;BME280;27370;42.764;23.432;2023-02-01T04:37:17;95691.13;;;-0.87;100.00
41686;BME280;27370;42.764;23.432;2023-02-01T04:39:43;95690.56;;;-0.93;100.00
41686;BME280;27370;42.764;23.432;2023-02-01T04:42:09;95672.31;;;-0.82;100.00
41686;BME280;27370;42.764;23.432;2023-02-01T04:44:34;95682.56;;;-0.93;100.00
41686;BME280;27370;42.764;23.432;2023-02-01T04:47:02;95684.91;;;-0.92;100.00
41686;BME280;27370;42.764;23.432;2023-02-01T04:49:27;95688.13;;;-0.98;100.00
41686;BME280;27370;42.764;23.432;2023-02-01T04:51:53;95680.50;;;-0.87;100.00
41686;BME280;27370;42.764;23.432;2023-02-01T04:54:18;95689.16;;;-0.66;100.00
41686;BME280;27370;42.764;23.432;2023-02-01T04:56:44;95681.06;;;-0.82;100.00
41686;BME280;27370;42.764;23.432;2023-02-01T04:59:11;95699.03;;;-0.67;100.00
41686;BME280;27370;42.764;23.432;2023-02-01T05:01:37;95698.81;;;-0.62;100.00
41686;BME280;27370;42.764;23.432;2023-02-01T05:04:02;95703.09;;;-0.69;100.00
41686;BME280;27370;42.764;23.432;2023-02-01T05:06:28;95695.59;;;-0.67;100.00
41686;BME280;27370;42.764;23.432;2023-02-01T05:08:54;95707.75;;;-0.78;100.00
41686;BME280;27370;42.764;23.432;2023-02-01T05:11:19;95705.88;;;-0.78;100.00
41686;BME280;27370;42.764;23.432;2023-02-01T05:14:03;95712.63;;;-0.80;100.00
41686;BME280;27370;42.764;23.432;2023-02-01T05:16:29;95725.91;;;-0.80;100.00
41686;BME280;27370;42.764;23.432;2023-02-01T05:18:54;95710.75;;;-0.80;100.00
41686;BME280;27370;42.764;23.432;2023-02-01T05:21:20;95713.41;;;-0.80;100.00
41686;BME280;27370;42.764;23.432;2023-02-01T05:23:46;95714.19;;;-0.79;100.00
41686;BME280;27370;42.764;23.432;2023-02-01T05:26:30;95718.72;;;-0.80;100.00
41686;BME280;27370;42.764;23.432;2023-02-01T05:28:55;95721.16;;;-0.75;100.00
41686;BME280;27370;42.764;23.432;2023-02-01T05:31:22;95702.22;;;-0.85;100.00
41686;BME280;27370;42.764;23.432;2023-02-01T05:33:47;95712.81;;;-0.98;100.00
41686;BME280;27370;42.764;23.432;2023-02-01T05:36:13;95701.75;;;-0.87;100.00
41686;BME280;27370;42.764;23.432;2023-02-01T05:38:38;95720.03;;;-0.86;100.00
41686;BME280;27370;42.764;23.432;2023-02-01T05:41:04;95717.06;;;-0.84;100.00
41686;BME280;27370;42.764;23.432;2023-02-01T05:43:29;95716.16;;;-0.88;100.00
41686;BME280;27370;42.764;23.432;2023-02-01T05:45:55;95723.81;;;-0.75;100.00
41686;BME280;27370;42.764;23.432;2023-02-01T05:48:21;95707.53;;;-0.73;100.00
41686;BME280;27370;42.764;23.432;2023-02-01T05:50:46;95719.19;;;-0.66;100.00
41686;BME280;27370;42.764;23.432;2023-02-01T05:53:12;95725.50;;;-0.58;100.00
41686;BME280;27370;42.764;23.432;2023-02-01T05:55:38;95725.59;;;-0.54;100.00
41686;BME280;27370;42.764;23.432;2023-02-01T05:58:04;95728.47;;;-0.47;100.00
41686;BME280;27370;42.764;23.432;2023-02-01T06:00:30;95713.88;;;-0.53;100.00
41686;BME280;27370;42.764;23.432;2023-02-01T06:02:56;95723.63;;;-0.45;100.00
41686;BME280;27370;42.764;23.432;2023-02-01T06:05:22;95725.63;;;-0.42;100.00
41686;BME280;27370;42.764;23.432;2023-02-01T06:07:47;95716.75;;;-0.46;100.00
41686;BME280;27370;42.764;23.432;2023-02-01T06:10:15;95719.88;;;-0.44;100.00
41686;BME280;27370;42.764;23.432;2023-02-01T06:12:41;95721.75;;;-0.20;100.00
41686;BME280;27370;42.764;23.432;2023-02-01T06:15:07;95735.47;;;-0.31;100.00
41686;BME280;27370;42.764;23.432;2023-02-01T06:17:32;95732.72;;;-0.22;100.00
41686;BME280;27370;42.764;23.432;2023-02-01T06:19:58;95734.13;;;-0.24;100.00
41686;BME280;27370;42.764;23.432;2023-02-01T06:22:23;95738.50;;;-0.20;100.00
41686;BME280;27370;42.764;23.432;2023-02-01T06:24:49;95736.47;;;-0.23;100.00
41686;BME280;27370;42.764;23.432;2023-02-01T06:27:15;95736.38;;;-0.14;100.00
41686;BME280;27370;42.764;23.432;2023-02-01T06:29:40;95735.25;;;-0.13;100.00
41686;BME280;27370;42.764;23.432;2023-02-01T06:32:06;95727.28;;;-0.25;100.00
41686;BME280;27370;42.764;23.432;2023-02-01T06:34:32;95735.59;;;-0.15;100.00
41686;BME280;27370;42.764;23.432;2023-02-01T06:36:57;95741.56;;;-0.06;100.00
41686;BME280;27370;42.764;23.432;2023-02-01T06:39:23;95742.00;;;-0.04;100.00
41686;BME280;27370;42.764;23.432;2023-02-01T06:41:49;95754.44;;;0.05;100.00
41686;BME280;27370;42.764;23.432;2023-02-01T06:44:15;95748.44;;;0.08;100.00
41686;BME280;27370;42.764;23.432;2023-02-01T06:46:42;95742.88;;;0.13;100.00
41686;BME280;27370;42.764;23.432;2023-02-01T06:49:07;95746.94;;;0.22;100.00
41686;BME280;27370;42.764;23.432;2023-02-01T06:51:34;95745.88;;;0.23;100.00
41686;BME280;27370;42.764;23.432;2023-02-01T06:54:00;95757.59;;;0.35;100.00
41686;BME280;27370;42.764;23.432;2023-02-01T06:56:26;95757.00;;;0.53;100.00
41686;BME280;27370;42.764;23.432;2023-02-01T06:58:52;95759.75;;;0.57;100.00
41686;BME280;27370;42.764;23.432;2023-02-01T07:01:18;95755.53;;;0.56;100.00
41686;BME280;27370;42.764;23.432;2023-02-01T07:03:47;95767.06;;;0.60;100.00
41686;BME280;27370;42.764;23.432;2023-02-01T07:06:13;95766.00;;;0.49;100.00
41686;BME280;27370;42.764;23.432;2023-02-01T07:08:39;95776.22;;;0.47;100.00
41686;BME280;27370;42.764;23.432;2023-02-01T07:11:06;95780.44;;;0.36;100.00
41686;BME280;27370;42.764;23.432;2023-02-01T07:13:33;95781.84;;;0.57;100.00
41686;BME280;27370;42.764;23.432;2023-02-01T07:16:00;95778.22;;;0.38;100.00
41686;BME280;27370;42.764;23.432;2023-02-01T07:18:27;95786.53;;;0.48;100.00
41686;BME280;27370;42.764;23.432;2023-02-01T07:20:53;95777.78;;;0.36;100.00
41686;BME280;27370;42.764;23.432;2023-02-01T07:23:19;95783.94;;;0.64;100.00
41686;BME280;27370;42.764;23.432;2023-02-01T07:25:45;95787.09;;;0.54;100.00
41686;BME280;27370;42.764;23.432;2023-02-01T07:28:11;95789.94;;;0.61;100.00
41686;BME280;27370;42.764;23.432;2023-02-01T07:30:36;95804.13;;;0.65;100.00
41686;BME280;27370;42.764;23.432;2023-02-01T07:33:02;95792.75;;;0.40;100.00
41686;BME280;27370;42.764;23.432;2023-02-01T07:35:28;95807.47;;;0.62;100.00
41686;BME280;27370;42.764;23.432;2023-02-01T07:37:54;95808.47;;;0.70;100.00
41686;BME280;27370;42.764;23.432;2023-02-01T07:40:20;95811.13;;;0.70;100.00
41686;BME280;27370;42.764;23.432;2023-02-01T07:42:50;95812.88;;;0.78;100.00
41686;BME280;27370;42.764;23.432;2023-02-01T07:45:15;95799.66;;;0.81;100.00
41686;BME280;27370;42.764;23.432;2023-02-01T07:47:41;95809.97;;;0.83;100.00
41686;BME280;27370;42.764;23.432;2023-02-01T07:50:07;95815.28;;;0.95;100.00
41686;BME280;27370;42.764;23.432;2023-02-01T07:52:33;95814.16;;;0.96;100.00
41686;BME280;27370;42.764;23.432;2023-02-01T07:54:58;95824.59;;;1.01;100.00
41686;BME280;27370;42.764;23.432;2023-02-01T07:57:24;95820.91;;;1.06;100.00
41686;BME280;27370;42.764;23.432;2023-02-01T07:59:49;95823.81;;;1.01;100.00
41686;BME280;27370;42.764;23.432;2023-02-01T08:02:37;95812.41;;;0.88;100.00
41686;BME280;27370;42.764;23.432;2023-02-01T08:05:03;95829.31;;;1.08;100.00
41686;BME280;27370;42.764;23.432;2023-02-01T08:11:25;95840.31;;;1.18;100.00
41686;BME280;27370;42.764;23.432;2023-02-01T08:13:51;95831.97;;;1.20;100.00
41686;BME280;27370;42.764;23.432;2023-02-01T08:16:19;95829.13;;;1.29;100.00
41686;BME280;27370;42.764;23.432;2023-02-01T08:18:45;95838.31;;;1.15;100.00
41686;BME280;27370;42.764;23.432;2023-02-01T08:21:12;95829.38;;;1.23;100.00
41686;BME280;27370;42.764;23.432;2023-02-01T08:23:39;95834.22;;;1.34;100.00
41686;BME280;27370;42.764;23.432;2023-02-01T08:26:25;95832.44;;;1.38;100.00
41686;BME280;27370;42.764;23.432;2023-02-01T08:28:56;95836.75;;;1.42;100.00
41686;BME280;27370;42.764;23.432;2023-02-01T08:31:23;95839.00;;;1.56;100.00
41686;BME280;27370;42.764;23.432;2023-02-01T08:33:54;95840.13;;;1.55;100.00
41686;BME280;27370;42.764;23.432;2023-02-01T08:36:21;95847.44;;;1.58;100.00
41686;BME280;27370;42.764;23.432;2023-02-01T08:38:47;95824.88;;;1.40;100.00
41686;BME280;27370;42.764;23.432;2023-02-01T08:41:15;95839.34;;;1.54;100.00
41686;BME280;27370;42.764;23.432;2023-02-01T08:43:42;95849.69;;;1.72;100.00
41686;BME280;27370;42.764;23.432;2023-02-01T08:46:08;95833.25;;;1.70;100.00
41686;BME280;27370;42.764;23.432;2023-02-01T08:48:35;95835.09;;;1.81;100.00
41686;BME280;27370;42.764;23.432;2023-02-01T08:51:02;95831.09;;;1.75;100.00
41686;BME280;27370;42.764;23.432;2023-02-01T08:53:28;95834.63;;;1.79;100.00
41686;BME280;27370;42.764;23.432;2023-02-01T08:55:54;95834.81;;;1.87;100.00
41686;BME280;27370;42.764;23.432;2023-02-01T08:58:19;95827.41;;;1.80;100.00
41686;BME280;27370;42.764;23.432;2023-02-01T09:00:47;95836.88;;;1.93;100.00
41686;BME280;27370;42.764;23.432;2023-02-01T09:03:16;95843.50;;;1.99;100.00
41686;BME280;27370;42.764;23.432;2023-02-01T09:05:42;95839.13;;;2.07;100.00
41686;BME280;27370;42.764;23.432;2023-02-01T09:08:07;95826.38;;;2.00;100.00
41686;BME280;27370;42.764;23.432;2023-02-01T09:10:34;95843.34;;;1.92;100.00
41686;BME280;27370;42.764;23.432;2023-02-01T09:13:00;95833.78;;;2.07;100.00
41686;BME280;27370;42.764;23.432;2023-02-01T09:15:26;95835.00;;;2.09;100.00
41686;BME280;27370;42.764;23.432;2023-02-01T09:17:51;95828.25;;;2.15;100.00
41686;BME280;27370;42.764;23.432;2023-02-01T09:20:17;95845.41;;;2.30;100.00
41686;BME280;27370;42.764;23.432;2023-02-01T09:22:44;95841.34;;;2.36;100.00
41686;BME280;27370;42.764;23.432;2023-02-01T09:25:09;95841.63;;;2.31;100.00
41686;BME280;27370;42.764;23.432;2023-02-01T09:27:35;95842.47;;;2.35;100.00
41686;BME280;27370;42.764;23.432;2023-02-01T09:30:01;95839.88;;;2.23;100.00
41686;BME280;27370;42.764;23.432;2023-02-01T09:32:27;95828.41;;;2.23;100.00
41686;BME280;27370;42.764;23.432;2023-02-01T09:34:52;95838.09;;;2.11;100.00
41686;BME280;27370;42.764;23.432;2023-02-01T09:37:18;95825.66;;;2.03;100.00
41686;BME280;27370;42.764;23.432;2023-02-01T09:39:44;95833.53;;;2.12;100.00
41686;BME280;27370;42.764;23.432;2023-02-01T09:42:20;95822.06;;;2.11;100.00
41686;BME280;27370;42.764;23.432;2023-02-01T09:47:24;95815.06;;;2.38;100.00
41686;BME280;27370;42.764;23.432;2023-02-01T09:50:04;95819.47;;;2.66;100.00
41686;BME280;27370;42.764;23.432;2023-02-01T09:52:38;95805.00;;;2.86;100.00
41686;BME280;27370;42.764;23.432;2023-02-01T09:55:35;95803.44;;;3.04;100.00
41686;BME280;27370;42.764;23.432;2023-02-01T10:00:53;95792.34;;;4.13;100.00
41686;BME280;27370;42.764;23.432;2023-02-01T10:03:21;95788.59;;;4.44;100.00
41686;BME280;27370;42.764;23.432;2023-02-01T10:06:06;95783.94;;;4.68;100.00
41686;BME280;27370;42.764;23.432;2023-02-01T10:08:40;95790.53;;;4.74;100.00
41686;BME280;27370;42.764;23.432;2023-02-01T10:11:39;95793.34;;;4.84;100.00
41686;BME280;27370;42.764;23.432;2023-02-01T10:17:05;95779.09;;;5.44;100.00
41686;BME280;27370;42.764;23.432;2023-02-01T10:25:25;95762.63;;;6.41;100.00
41686;BME280;27370;42.764;23.432;2023-02-01T10:27:52;95751.53;;;6.46;100.00
41686;BME280;27370;42.764;23.432;2023-02-01T10:32:48;95745.66;;;6.33;100.00
41686;BME280;27370;42.764;23.432;2023-02-01T10:35:18;95753.16;;;6.06;100.00
41686;BME280;27370;42.764;23.432;2023-02-01T10:37:45;95741.25;;;5.60;100.00
41686;BME280;27370;42.764;23.432;2023-02-01T10:40:24;95755.94;;;5.73;100.00
41686;BME280;27370;42.764;23.432;2023-02-01T10:42:56;95745.72;;;5.08;100.00
41686;BME280;27370;42.764;23.432;2023-02-01T10:45:26;95742.25;;;5.07;100.00
41686;BME280;27370;42.764;23.432;2023-02-01T10:47:53;95747.16;;;4.68;100.00
41686;BME280;27370;42.764;23.432;2023-02-01T10:53:02;95726.72;;;5.23;100.00
41686;BME280;27370;42.764;23.432;2023-02-01T10:58:07;95727.81;;;6.07;100.00
41686;BME280;27370;42.764;23.432;2023-02-01T11:00:34;95741.63;;;6.02;100.00
41686;BME280;27370;42.764;23.432;2023-02-01T11:08:51;95730.91;;;5.62;100.00
41686;BME280;27370;42.764;23.432;2023-02-01T11:11:17;95723.75;;;5.80;100.00
41686;BME280;27370;42.764;23.432;2023-02-01T11:13:43;95721.91;;;5.88;100.00
41686;BME280;27370;42.764;23.432;2023-02-01T11:16:12;95707.94;;;6.16;100.00
41686;BME280;27370;42.764;23.432;2023-02-01T11:18:38;95718.56;;;6.67;100.00
41686;BME280;27370;42.764;23.432;2023-02-01T11:21:06;95711.91;;;6.39;100.00
41686;BME280;27370;42.764;23.432;2023-02-01T11:23:32;95710.41;;;6.49;100.00
41686;BME280;27370;42.764;23.432;2023-02-01T11:26:00;95712.31;;;6.45;100.00
41686;BME280;27370;42.764;23.432;2023-02-01T11:28:30;95704.66;;;5.89;100.00
41686;BME280;27370;42.764;23.432;2023-02-01T11:31:00;95711.91;;;5.88;100.00
41686;BME280;27370;42.764;23.432;2023-02-01T11:33:31;95706.06;;;5.75;100.00
41686;BME280;27370;42.764;23.432;2023-02-01T11:36:14;95698.00;;;5.72;100.00
41686;BME280;27370;42.764;23.432;2023-02-01T11:38:51;95704.06;;;5.65;100.00
41686;BME280;27370;42.764;23.432;2023-02-01T11:41:25;95704.25;;;5.42;100.00
41686;BME280;27370;42.764;23.432;2023-02-01T11:46:19;95689.94;;;5.28;100.00
41686;BME280;27370;42.764;23.432;2023-02-01T11:48:50;95685.13;;;5.47;100.00
41686;BME280;27370;42.764;23.432;2023-02-01T11:56:26;95685.50;;;5.94;100.00
41686;BME280;27370;42.764;23.432;2023-02-01T12:09:50;95670.22;;;6.05;100.00
41686;BME280;27370;42.764;23.432;2023-02-01T12:18:49;95668.00;;;6.21;100.00
41686;BME280;27370;42.764;23.432;2023-02-01T12:36:21;95657.66;;;6.27;100.00
41686;BME280;27370;42.764;23.432;2023-02-01T12:38:55;95658.53;;;6.49;100.00
41686;BME280;27370;42.764;23.432;2023-02-01T12:41:30;95659.19;;;6.28;100.00
41686;BME280;27370;42.764;23.432;2023-02-01T12:44:08;95652.00;;;6.46;100.00
41686;BME280;27370;42.764;23.432;2023-02-01T12:49:57;95642.16;;;6.93;100.00
41686;BME280;27370;42.764;23.432;2023-02-01T12:55:08;95638.25;;;6.76;100.00
41686;BME280;27370;42.764;23.432;2023-02-01T12:57:40;95631.63;;;6.45;100.00
41686;BME280;27370;42.764;23.432;2023-02-01T13:00:23;95630.47;;;6.46;100.00
41686;BME280;27370;42.764;23.432;2023-02-01T13:02:57;95625.09;;;6.50;100.00
41686;BME280;27370;42.764;23.432;2023-02-01T13:05:49;95627.78;;;6.46;100.00
41686;BME280;27370;42.764;23.432;2023-02-01T13:08:22;95623.19;;;6.47;100.00
41686;BME280;27370;42.764;23.432;2023-02-01T13:16:27;95635.56;;;6.76;100.00
41686;BME280;27370;42.764;23.432;2023-02-01T13:19:21;95619.09;;;6.92;99.46
41686;BME280;27370;42.764;23.432;2023-02-01T13:21:53;95625.19;;;6.74;100.00
41686;BME280;27370;42.764;23.432;2023-02-01T13:27:14;95628.16;;;6.41;100.00
41686;BME280;27370;42.764;23.432;2023-02-01T13:30:24;95624.69;;;6.37;100.00
41686;BME280;27370;42.764;23.432;2023-02-01T13:33:14;95618.09;;;6.24;100.00
41686;BME280;27370;42.764;23.432;2023-02-01T13:36:12;95615.38;;;6.13;100.00
41686;BME280;27370;42.764;23.432;2023-02-01T13:39:08;95630.47;;;6.39;100.00
41686;BME280;27370;42.764;23.432;2023-02-01T13:42:00;95612.03;;;6.41;100.00
41686;BME280;27370;42.764;23.432;2023-02-01T13:44:36;95633.56;;;6.44;100.00
41686;BME280;27370;42.764;23.432;2023-02-01T13:47:16;95624.59;;;6.16;100.00
41686;BME280;27370;42.764;23.432;2023-02-01T13:49:43;95609.63;;;6.18;100.00
41686;BME280;27370;42.764;23.432;2023-02-01T13:55:26;95623.34;;;6.02;100.00
41686;BME280;27370;42.764;23.432;2023-02-01T13:58:04;95611.84;;;6.02;100.00
41686;BME280;27370;42.764;23.432;2023-02-01T14:00:37;95605.44;;;5.66;100.00
41686;BME280;27370;42.764;23.432;2023-02-01T14:03:08;95626.44;;;5.49;100.00
41686;BME280;27370;42.764;23.432;2023-02-01T14:16:17;95609.16;;;5.43;100.00
41686;BME280;27370;42.764;23.432;2023-02-01T14:21:33;95604.59;;;5.51;100.00
41686;BME280;27370;42.764;23.432;2023-02-01T14:26:52;95600.13;;;5.73;100.00
41686;BME280;27370;42.764;23.432;2023-02-01T14:29:35;95595.50;;;5.66;100.00
41686;BME280;27370;42.764;23.432;2023-02-01T14:32:21;95605.03;;;5.64;100.00
41686;BME280;27370;42.764;23.432;2023-02-01T14:44:47;95601.31;;;5.20;100.00
41686;BME280;27370;42.764;23.432;2023-02-01T14:47:27;95612.50;;;5.33;100.00
41686;BME280;27370;42.764;23.432;2023-02-01T14:52:37;95607.16;;;5.37;100.00
41686;BME280;27370;42.764;23.432;2023-02-01T14:58:01;95619.28;;;5.20;100.00
41686;BME280;27370;42.764;23.432;2023-02-01T15:00:30;95616.91;;;5.08;100.00
41686;BME280;27370;42.764;23.432;2023-02-01T15:05:58;95608.31;;;4.91;100.00
41686;BME280;27370;42.764;23.432;2023-02-01T15:08:35;95611.53;;;4.71;100.00
41686;BME280;27370;42.764;23.432;2023-02-01T15:11:08;95608.84;;;4.67;100.00
41686;BME280;27370;42.764;23.432;2023-02-01T15:13:37;95604.75;;;4.43;100.00
41686;BME280;27370;42.764;23.432;2023-02-01T15:16:13;95621.19;;;4.42;100.00
41686;BME280;27370;42.764;23.432;2023-02-01T15:18:40;95603.50;;;4.34;100.00
41686;BME280;27370;42.764;23.432;2023-02-01T15:21:14;95621.31;;;4.19;100.00